sensor_id;sensor_type;location;lat;lon;timestamp;P1;durP1;ratioP1;P2;durP2;ratioP2
59978;SDS011;45839;44.882;20.650;2022-11-18T00:01:18;23.08;;;18.75;;
59978;SDS011;45839;44.882;20.650;2022-11-18T00:03:44;22.33;;;19.73;;
59978;SDS011;45839;44.882;20.650;2022-11-18T00:06:15;22.00;;;18.90;;
59978;SDS011;45839;44.882;20.650;2022-11-18T00:08:41;21.48;;;18.13;;
59978;SDS011;45839;44.882;20.650;2022-11-18T00:11:09;22.90;;;20.45;;
59978;SDS011;45839;44.882;20.650;2022-11-18T00:13:38;23.05;;;19.33;;
59978;SDS011;45839;44.882;20.650;2022-11-18T00:16:23;21.58;;;18.52;;
59978;SDS011;45839;44.882;20.650;2022-11-18T00:18:49;24.65;;;20.63;;
59978;SDS011;45839;44.882;20.650;2022-11-18T00:21:15;25.77;;;20.67;;
59978;SDS011;45839;44.882;20.650;2022-11-18T00:23:41;23.55;;;19.75;;
59978;SDS011;45839;44.882;20.650;2022-11-18T00:26:08;24.63;;;20.58;;
59978;SDS011;45839;44.882;20.650;2022-11-18T00:28:35;25.65;;;20.23;;
59978;SDS011;45839;44.882;20.650;2022-11-18T00:31:02;22.85;;;19.38;;
59978;SDS011;45839;44.882;20.650;2022-11-18T00:33:28;23.35;;;19.55;;
59978;SDS011;45839;44.882;20.650;2022-11-18T00:35:54;22.25;;;19.02;;
59978;SDS011;45839;44.882;20.650;2022-11-18T00:38:20;24.35;;;20.27;;
59978;SDS011;45839;44.882;20.650;2022-11-18T00:40:46;23.17;;;19.00;;
59978;SDS011;45839;44.882;20.650;2022-11-18T00:43:12;24.15;;;19.75;;
59978;SDS011;45839;44.882;20.650;2022-11-18T00:45:38;21.95;;;18.70;;
59978;SDS011;45839;44.882;20.650;2022-11-18T00:48:04;23.25;;;19.50;;
59978;SDS011;45839;44.882;20.650;2022-11-18T00:50:30;22.60;;;18.88;;
59978;SDS011;45839;44.882;20.650;2022-11-18T00:52:57;21.30;;;18.50;;
59978;SDS011;45839;44.882;20.650;2022-11-18T00:55:23;21.38;;;18.73;;
59978;SDS011;45839;44.882;20.650;2022-11-18T00:57:49;19.98;;;17.40;;
59978;SDS011;45839;44.882;20.650;2022-11-18T01:00:15;20.77;;;18.10;;
59978;SDS011;45839;44.882;20.650;2022-11-18T01:02:41;22.45;;;18.98;;
59978;SDS011;45839;44.882;20.650;2022-11-18T01:05:07;23.17;;;18.35;;
59978;SDS011;45839;44.882;20.650;2022-11-18T01:07:33;21.85;;;18.08;;
59978;SDS011;45839;44.882;20.650;2022-11-18T01:09:59;24.35;;;17.90;;
59978;SDS011;45839;44.882;20.650;2022-11-18T01:12:26;20.60;;;18.02;;
59978;SDS011;45839;44.882;20.650;2022-11-18T01:15:11;21.05;;;18.50;;
59978;SDS011;45839;44.882;20.650;2022-11-18T01:17:37;23.33;;;19.48;;
59978;SDS011;45839;44.882;20.650;2022-11-18T01:20:03;23.05;;;19.80;;
59978;SDS011;45839;44.882;20.650;2022-11-18T01:22:29;22.88;;;19.00;;
59978;SDS011;45839;44.882;20.650;2022-11-18T01:24:55;22.23;;;19.33;;
59978;SDS011;45839;44.882;20.650;2022-11-18T01:27:21;23.33;;;19.58;;
59978;SDS011;45839;44.882;20.650;2022-11-18T01:29:47;23.60;;;19.92;;
59978;SDS011;45839;44.882;20.650;2022-11-18T01:32:14;24.17;;;20.25;;
59978;SDS011;45839;44.882;20.650;2022-11-18T01:34:40;22.63;;;19.58;;
59978;SDS011;45839;44.882;20.650;2022-11-18T01:37:06;20.90;;;18.20;;
59978;SDS011;45839;44.882;20.650;2022-11-18T01:39:32;21.77;;;17.73;;
59978;SDS011;45839;44.882;20.650;2022-11-18T01:41:58;20.08;;;17.88;;
59978;SDS011;45839;44.882;20.650;2022-11-18T01:47:09;19.88;;;17.10;;
59978;SDS011;45839;44.882;20.650;2022-11-18T01:49:35;20.42;;;17.63;;
59978;SDS011;45839;44.882;20.650;2022-11-18T01:52:01;20.90;;;16.88;;
59978;SDS011;45839;44.882;20.650;2022-11-18T01:54:31;17.80;;;15.90;;
59978;SDS011;45839;44.882;20.650;2022-11-18T01:56:59;19.10;;;16.88;;
59978;SDS011;45839;44.882;20.650;2022-11-18T01:59:29;18.55;;;16.15;;
59978;SDS011;45839;44.882;20.650;2022-11-18T02:01:55;17.75;;;15.73;;
59978;SDS011;45839;44.882;20.650;2022-11-18T02:04:22;17.92;;;16.02;;
59978;SDS011;45839;44.882;20.650;2022-11-18T02:06:50;17.48;;;15.07;;
59978;SDS011;45839;44.882;20.650;2022-11-18T02:09:16;17.27;;;14.63;;
59978;SDS011;45839;44.882;20.650;2022-11-18T02:11:43;17.35;;;14.70;;
59978;SDS011;45839;44.882;20.650;2022-11-18T02:14:16;20.10;;;16.55;;
59978;SDS011;45839;44.882;20.650;2022-11-18T02:19:14;21.83;;;15.73;;
59978;SDS011;45839;44.882;20.650;2022-11-18T02:21:58;17.75;;;15.82;;
59978;SDS011;45839;44.882;20.650;2022-11-18T02:27:01;17.40;;;15.25;;
59978;SDS011;45839;44.882;20.650;2022-11-18T02:29:44;18.33;;;15.40;;
59978;SDS011;45839;44.882;20.650;2022-11-18T02:32:17;17.98;;;14.98;;
59978;SDS011;45839;44.882;20.650;2022-11-18T02:39:52;17.07;;;15.00;;
59978;SDS011;45839;44.882;20.650;2022-11-18T02:42:19;16.90;;;13.95;;
59978;SDS011;45839;44.882;20.650;2022-11-18T02:44:48;16.05;;;14.35;;
59978;SDS011;45839;44.882;20.650;2022-11-18T02:47:15;18.05;;;15.20;;
59978;SDS011;45839;44.882;20.650;2022-11-18T02:49:49;18.25;;;15.43;;
59978;SDS011;45839;44.882;20.650;2022-11-18T02:52:16;17.02;;;13.95;;
59978;SDS011;45839;44.882;20.650;2022-11-18T02:54:44;17.05;;;14.57;;
59978;SDS011;45839;44.882;20.650;2022-11-18T02:57:12;16.50;;;14.65;;
59978;SDS011;45839;44.882;20.650;2022-11-18T02:59:38;15.40;;;13.80;;
59978;SDS011;45839;44.882;20.650;2022-11-18T03:02:04;17.33;;;13.73;;
59978;SDS011;45839;44.882;20.650;2022-11-18T03:04:30;15.15;;;13.55;;
59978;SDS011;45839;44.882;20.650;2022-11-18T03:09:43;17.65;;;14.10;;
59978;SDS011;45839;44.882;20.650;2022-11-18T03:12:10;17.85;;;14.18;;
59978;SDS011;45839;44.882;20.650;2022-11-18T03:20:14;16.48;;;14.10;;
59978;SDS011;45839;44.882;20.650;2022-11-18T03:25:22;17.35;;;14.32;;
59978;SDS011;45839;44.882;20.650;2022-11-18T03:28:04;15.48;;;13.75;;
59978;SDS011;45839;44.882;20.650;2022-11-18T03:30:32;16.30;;;14.30;;
59978;SDS011;45839;44.882;20.650;2022-11-18T03:33:00;17.92;;;14.25;;
59978;SDS011;45839;44.882;20.650;2022-11-18T03:35:28;16.60;;;13.68;;
59978;SDS011;45839;44.882;20.650;2022-11-18T03:37:58;16.30;;;13.80;;
59978;SDS011;45839;44.882;20.650;2022-11-18T03:40:27;16.63;;;14.10;;
59978;SDS011;45839;44.882;20.650;2022-11-18T03:42:59;17.05;;;14.35;;
59978;SDS011;45839;44.882;20.650;2022-11-18T03:45:33;15.18;;;13.25;;
59978;SDS011;45839;44.882;20.650;2022-11-18T03:48:03;18.08;;;13.88;;
59978;SDS011;45839;44.882;20.650;2022-11-18T03:50:32;18.38;;;14.57;;
59978;SDS011;45839;44.882;20.650;2022-11-18T03:53:00;17.23;;;13.63;;
59978;SDS011;45839;44.882;20.650;2022-11-18T03:55:28;17.02;;;14.45;;
59978;SDS011;45839;44.882;20.650;2022-11-18T03:57:58;15.85;;;13.95;;
59978;SDS011;45839;44.882;20.650;2022-11-18T04:00:27;15.25;;;13.57;;
59978;SDS011;45839;44.882;20.650;2022-11-18T04:02:54;16.98;;;13.77;;
59978;SDS011;45839;44.882;20.650;2022-11-18T04:05:20;15.80;;;13.30;;
59978;SDS011;45839;44.882;20.650;2022-11-18T04:07:51;15.50;;;13.60;;
59978;SDS011;45839;44.882;20.650;2022-11-18T04:10:20;14.60;;;12.73;;
59978;SDS011;45839;44.882;20.650;2022-11-18T04:15:31;14.68;;;13.00;;
59978;SDS011;45839;44.882;20.650;2022-11-18T04:17:58;15.10;;;13.48;;
59978;SDS011;45839;44.882;20.650;2022-11-18T04:20:24;15.32;;;12.90;;
59978;SDS011;45839;44.882;20.650;2022-11-18T04:22:50;14.00;;;12.10;;
59978;SDS011;45839;44.882;20.650;2022-11-18T04:25:16;14.52;;;12.48;;
59978;SDS011;45839;44.882;20.650;2022-11-18T04:27:42;15.57;;;13.35;;
59978;SDS011;45839;44.882;20.650;2022-11-18T04:30:08;14.38;;;12.48;;
59978;SDS011;45839;44.882;20.650;2022-11-18T04:32:34;13.93;;;12.48;;
59978;SDS011;45839;44.882;20.650;2022-11-18T04:35:01;15.20;;;12.55;;
59978;SDS011;45839;44.882;20.650;2022-11-18T04:37:27;14.93;;;13.02;;
59978;SDS011;45839;44.882;20.650;2022-11-18T04:39:53;14.57;;;12.75;;
59978;SDS011;45839;44.882;20.650;2022-11-18T04:42:19;15.13;;;13.05;;
59978;SDS011;45839;44.882;20.650;2022-11-18T04:44:45;16.55;;;14.32;;
59978;SDS011;45839;44.882;20.650;2022-11-18T04:47:11;17.20;;;14.60;;
59978;SDS011;45839;44.882;20.650;2022-11-18T04:49:37;16.38;;;14.15;;
59978;SDS011;45839;44.882;20.650;2022-11-18T04:52:03;17.92;;;14.10;;
59978;SDS011;45839;44.882;20.650;2022-11-18T04:54:29;15.25;;;13.57;;
59978;SDS011;45839;44.882;20.650;2022-11-18T04:56:55;15.90;;;13.98;;
59978;SDS011;45839;44.882;20.650;2022-11-18T04:59:26;15.85;;;13.10;;
59978;SDS011;45839;44.882;20.650;2022-11-18T05:01:52;15.98;;;12.88;;
59978;SDS011;45839;44.882;20.650;2022-11-18T05:04:20;15.77;;;13.52;;
59978;SDS011;45839;44.882;20.650;2022-11-18T05:06:46;18.10;;;13.82;;
59978;SDS011;45839;44.882;20.650;2022-11-18T05:09:13;16.50;;;13.45;;
59978;SDS011;45839;44.882;20.650;2022-11-18T05:11:39;16.85;;;13.10;;
59978;SDS011;45839;44.882;20.650;2022-11-18T05:14:24;15.98;;;13.05;;
59978;SDS011;45839;44.882;20.650;2022-11-18T05:16:51;16.02;;;12.90;;
59978;SDS011;45839;44.882;20.650;2022-11-18T05:19:17;15.10;;;13.18;;
59978;SDS011;45839;44.882;20.650;2022-11-18T05:21:43;16.10;;;13.32;;
59978;SDS011;45839;44.882;20.650;2022-11-18T05:24:09;16.23;;;13.43;;
59978;SDS011;45839;44.882;20.650;2022-11-18T05:26:35;14.93;;;12.55;;
59978;SDS011;45839;44.882;20.650;2022-11-18T05:29:01;14.52;;;12.10;;
59978;SDS011;45839;44.882;20.650;2022-11-18T05:31:27;15.40;;;13.43;;
59978;SDS011;45839;44.882;20.650;2022-11-18T05:33:53;16.13;;;12.48;;
59978;SDS011;45839;44.882;20.650;2022-11-18T05:36:20;16.40;;;13.38;;
59978;SDS011;45839;44.882;20.650;2022-11-18T05:38:46;15.50;;;12.73;;
59978;SDS011;45839;44.882;20.650;2022-11-18T05:41:12;21.77;;;17.85;;
59978;SDS011;45839;44.882;20.650;2022-11-18T05:43:58;21.98;;;18.73;;
59978;SDS011;45839;44.882;20.650;2022-11-18T05:46:25;17.75;;;15.55;;
59978;SDS011;45839;44.882;20.650;2022-11-18T05:48:51;17.27;;;13.98;;
59978;SDS011;45839;44.882;20.650;2022-11-18T05:51:17;16.02;;;13.57;;
59978;SDS011;45839;44.882;20.650;2022-11-18T05:53:43;15.30;;;12.98;;
59978;SDS011;45839;44.882;20.650;2022-11-18T05:56:28;15.68;;;13.25;;
59978;SDS011;45839;44.882;20.650;2022-11-18T05:58:54;16.48;;;14.68;;
59978;SDS011;45839;44.882;20.650;2022-11-18T06:01:25;18.90;;;15.20;;
59978;SDS011;45839;44.882;20.650;2022-11-18T06:03:53;19.48;;;16.30;;
59978;SDS011;45839;44.882;20.650;2022-11-18T06:06:19;18.63;;;15.20;;
59978;SDS011;45839;44.882;20.650;2022-11-18T06:08:51;18.58;;;15.35;;
59978;SDS011;45839;44.882;20.650;2022-11-18T06:11:18;17.23;;;15.13;;
59978;SDS011;45839;44.882;20.650;2022-11-18T06:13:53;20.50;;;18.27;;
59978;SDS011;45839;44.882;20.650;2022-11-18T06:16:21;21.15;;;17.48;;
59978;SDS011;45839;44.882;20.650;2022-11-18T06:18:47;16.15;;;14.13;;
59978;SDS011;45839;44.882;20.650;2022-11-18T06:21:13;15.57;;;13.18;;
59978;SDS011;45839;44.882;20.650;2022-11-18T06:23:40;15.88;;;13.07;;
59978;SDS011;45839;44.882;20.650;2022-11-18T06:26:07;15.85;;;12.80;;
59978;SDS011;45839;44.882;20.650;2022-11-18T06:28:33;17.15;;;13.10;;
59978;SDS011;45839;44.882;20.650;2022-11-18T06:31:00;15.85;;;13.05;;
59978;SDS011;45839;44.882;20.650;2022-11-18T06:33:26;14.20;;;11.98;;
59978;SDS011;45839;44.882;20.650;2022-11-18T06:35:52;16.88;;;13.77;;
59978;SDS011;45839;44.882;20.650;2022-11-18T06:38:18;17.52;;;14.25;;
59978;SDS011;45839;44.882;20.650;2022-11-18T06:40:44;17.65;;;13.55;;
59978;SDS011;45839;44.882;20.650;2022-11-18T06:43:10;15.60;;;13.57;;
59978;SDS011;45839;44.882;20.650;2022-11-18T06:45:59;15.88;;;13.35;;
59978;SDS011;45839;44.882;20.650;2022-11-18T06:48:44;14.77;;;12.38;;
59978;SDS011;45839;44.882;20.650;2022-11-18T06:51:10;15.73;;;12.52;;
59978;SDS011;45839;44.882;20.650;2022-11-18T06:53:36;15.45;;;12.50;;
59978;SDS011;45839;44.882;20.650;2022-11-18T06:56:10;14.55;;;11.80;;
59978;SDS011;45839;44.882;20.650;2022-11-18T06:58:36;78.07;;;62.10;;
59978;SDS011;45839;44.882;20.650;2022-11-18T07:01:16;54.38;;;43.85;;
59978;SDS011;45839;44.882;20.650;2022-11-18T07:03:43;48.17;;;39.30;;
59978;SDS011;45839;44.882;20.650;2022-11-18T07:06:10;39.40;;;32.30;;
59978;SDS011;45839;44.882;20.650;2022-11-18T07:08:37;32.95;;;27.60;;
59978;SDS011;45839;44.882;20.650;2022-11-18T07:11:04;32.00;;;26.00;;
59978;SDS011;45839;44.882;20.650;2022-11-18T07:13:33;26.60;;;19.40;;
59978;SDS011;45839;44.882;20.650;2022-11-18T07:16:10;17.17;;;13.35;;
59978;SDS011;45839;44.882;20.650;2022-11-18T07:18:37;32.28;;;25.33;;
59978;SDS011;45839;44.882;20.650;2022-11-18T07:21:03;28.00;;;23.48;;
59978;SDS011;45839;44.882;20.650;2022-11-18T07:23:30;32.90;;;25.67;;
59978;SDS011;45839;44.882;20.650;2022-11-18T07:25:56;36.38;;;29.08;;
59978;SDS011;45839;44.882;20.650;2022-11-18T07:28:23;15.77;;;13.07;;
59978;SDS011;45839;44.882;20.650;2022-11-18T07:30:49;16.77;;;12.38;;
59978;SDS011;45839;44.882;20.650;2022-11-18T07:33:15;14.73;;;11.10;;
59978;SDS011;45839;44.882;20.650;2022-11-18T07:35:41;14.05;;;12.20;;
59978;SDS011;45839;44.882;20.650;2022-11-18T07:38:07;15.30;;;12.00;;
59978;SDS011;45839;44.882;20.650;2022-11-18T07:40:33;16.92;;;13.38;;
59978;SDS011;45839;44.882;20.650;2022-11-18T07:42:59;14.55;;;13.00;;
59978;SDS011;45839;44.882;20.650;2022-11-18T07:45:25;14.48;;;12.20;;
59978;SDS011;45839;44.882;20.650;2022-11-18T07:47:51;13.32;;;11.25;;
59978;SDS011;45839;44.882;20.650;2022-11-18T07:50:17;15.80;;;12.23;;
59978;SDS011;45839;44.882;20.650;2022-11-18T07:52:43;16.67;;;12.43;;
59978;SDS011;45839;44.882;20.650;2022-11-18T07:55:09;15.85;;;12.50;;
59978;SDS011;45839;44.882;20.650;2022-11-18T07:57:35;15.60;;;12.55;;
59978;SDS011;45839;44.882;20.650;2022-11-18T08:00:02;18.20;;;14.10;;
59978;SDS011;45839;44.882;20.650;2022-11-18T08:02:28;17.42;;;13.93;;
59978;SDS011;45839;44.882;20.650;2022-11-18T08:04:55;15.38;;;12.40;;
59978;SDS011;45839;44.882;20.650;2022-11-18T08:07:21;15.73;;;12.13;;
59978;SDS011;45839;44.882;20.650;2022-11-18T08:09:47;15.63;;;12.38;;
59978;SDS011;45839;44.882;20.650;2022-11-18T08:12:13;19.52;;;13.68;;
59978;SDS011;45839;44.882;20.650;2022-11-18T08:14:39;20.80;;;16.23;;
59978;SDS011;45839;44.882;20.650;2022-11-18T08:17:05;17.48;;;13.38;;
59978;SDS011;45839;44.882;20.650;2022-11-18T08:19:33;17.95;;;13.98;;
59978;SDS011;45839;44.882;20.650;2022-11-18T08:21:59;18.45;;;14.10;;
59978;SDS011;45839;44.882;20.650;2022-11-18T08:24:25;21.00;;;13.40;;
59978;SDS011;45839;44.882;20.650;2022-11-18T08:26:51;19.08;;;14.43;;
59978;SDS011;45839;44.882;20.650;2022-11-18T08:29:17;19.45;;;13.93;;
59978;SDS011;45839;44.882;20.650;2022-11-18T08:31:43;17.23;;;13.60;;
59978;SDS011;45839;44.882;20.650;2022-11-18T08:34:09;17.00;;;15.02;;
59978;SDS011;45839;44.882;20.650;2022-11-18T08:36:37;18.98;;;15.55;;
59978;SDS011;45839;44.882;20.650;2022-11-18T08:39:04;19.35;;;15.23;;
59978;SDS011;45839;44.882;20.650;2022-11-18T08:41:37;16.88;;;14.60;;
59978;SDS011;45839;44.882;20.650;2022-11-18T08:44:04;26.50;;;19.13;;
59978;SDS011;45839;44.882;20.650;2022-11-18T08:46:32;17.58;;;14.25;;
59978;SDS011;45839;44.882;20.650;2022-11-18T08:48:59;17.83;;;13.35;;
59978;SDS011;45839;44.882;20.650;2022-11-18T08:51:25;16.80;;;13.57;;
59978;SDS011;45839;44.882;20.650;2022-11-18T08:53:51;15.70;;;12.50;;
59978;SDS011;45839;44.882;20.650;2022-11-18T08:56:18;15.25;;;11.70;;
59978;SDS011;45839;44.882;20.650;2022-11-18T08:58:44;13.98;;;11.27;;
59978;SDS011;45839;44.882;20.650;2022-11-18T09:01:10;15.43;;;11.15;;
59978;SDS011;45839;44.882;20.650;2022-11-18T09:03:36;14.02;;;12.00;;
59978;SDS011;45839;44.882;20.650;2022-11-18T09:06:12;16.25;;;12.70;;
59978;SDS011;45839;44.882;20.650;2022-11-18T09:08:39;20.02;;;16.90;;
59978;SDS011;45839;44.882;20.650;2022-11-18T09:11:06;22.80;;;18.85;;
59978;SDS011;45839;44.882;20.650;2022-11-18T09:13:32;15.93;;;13.50;;
59978;SDS011;45839;44.882;20.650;2022-11-18T09:15:59;16.08;;;12.40;;
59978;SDS011;45839;44.882;20.650;2022-11-18T09:18:25;17.17;;;13.10;;
59978;SDS011;45839;44.882;20.650;2022-11-18T09:20:55;16.70;;;13.50;;
59978;SDS011;45839;44.882;20.650;2022-11-18T09:23:21;18.90;;;14.55;;
59978;SDS011;45839;44.882;20.650;2022-11-18T09:25:47;20.23;;;15.38;;
59978;SDS011;45839;44.882;20.650;2022-11-18T09:28:13;18.02;;;14.95;;
59978;SDS011;45839;44.882;20.650;2022-11-18T09:30:39;18.80;;;14.95;;
59978;SDS011;45839;44.882;20.650;2022-11-18T09:33:05;17.90;;;14.13;;
59978;SDS011;45839;44.882;20.650;2022-11-18T09:35:31;18.35;;;14.50;;
59978;SDS011;45839;44.882;20.650;2022-11-18T09:37:58;18.27;;;14.65;;
59978;SDS011;45839;44.882;20.650;2022-11-18T09:40:27;27.00;;;22.52;;
59978;SDS011;45839;44.882;20.650;2022-11-18T09:42:55;18.23;;;14.70;;
59978;SDS011;45839;44.882;20.650;2022-11-18T09:45:23;19.77;;;15.10;;
59978;SDS011;45839;44.882;20.650;2022-11-18T09:47:56;18.40;;;15.40;;
59978;SDS011;45839;44.882;20.650;2022-11-18T09:50:23;17.08;;;14.25;;
59978;SDS011;45839;44.882;20.650;2022-11-18T09:52:58;17.05;;;14.77;;
59978;SDS011;45839;44.882;20.650;2022-11-18T09:55:27;16.23;;;13.77;;
59978;SDS011;45839;44.882;20.650;2022-11-18T09:57:56;16.98;;;13.30;;
59978;SDS011;45839;44.882;20.650;2022-11-18T10:00:25;26.08;;;22.48;;
59978;SDS011;45839;44.882;20.650;2022-11-18T10:02:59;23.25;;;19.65;;
59978;SDS011;45839;44.882;20.650;2022-11-18T10:05:30;19.55;;;15.75;;
59978;SDS011;45839;44.882;20.650;2022-11-18T10:13:03;21.15;;;17.05;;
59978;SDS011;45839;44.882;20.650;2022-11-18T10:25:43;20.15;;;17.00;;
59978;SDS011;45839;44.882;20.650;2022-11-18T10:28:16;21.13;;;16.17;;
59978;SDS011;45839;44.882;20.650;2022-11-18T10:30:46;18.98;;;15.68;;
59978;SDS011;45839;44.882;20.650;2022-11-18T10:33:23;18.38;;;15.18;;
59978;SDS011;45839;44.882;20.650;2022-11-18T10:35:49;21.88;;;16.67;;
59978;SDS011;45839;44.882;20.650;2022-11-18T10:38:19;33.33;;;26.60;;
59978;SDS011;45839;44.882;20.650;2022-11-18T10:46:15;22.52;;;18.83;;
59978;SDS011;45839;44.882;20.650;2022-11-18T10:48:41;21.92;;;19.20;;
59978;SDS011;45839;44.882;20.650;2022-11-18T10:51:23;23.13;;;18.23;;
59978;SDS011;45839;44.882;20.650;2022-11-18T10:53:49;21.73;;;18.65;;
59978;SDS011;45839;44.882;20.650;2022-11-18T10:56:15;25.15;;;19.50;;
59978;SDS011;45839;44.882;20.650;2022-11-18T10:58:43;20.92;;;17.83;;
59978;SDS011;45839;44.882;20.650;2022-11-18T11:01:18;20.27;;;17.00;;
59978;SDS011;45839;44.882;20.650;2022-11-18T11:04:18;21.88;;;18.40;;
59978;SDS011;45839;44.882;20.650;2022-11-18T11:06:36;19.23;;;16.88;;
59978;SDS011;45839;44.882;20.650;2022-11-18T11:09:22;19.35;;;15.98;;
59978;SDS011;45839;44.882;20.650;2022-11-18T11:17:13;16.92;;;14.52;;
59978;SDS011;45839;44.882;20.650;2022-11-18T11:22:07;16.60;;;13.52;;
59978;SDS011;45839;44.882;20.650;2022-11-18T11:24:34;14.98;;;13.25;;
59978;SDS011;45839;44.882;20.650;2022-11-18T11:30:06;19.52;;;16.67;;
59978;SDS011;45839;44.882;20.650;2022-11-18T11:35:14;15.38;;;12.80;;
59978;SDS011;45839;44.882;20.650;2022-11-18T11:45:18;14.43;;;11.95;;
59978;SDS011;45839;44.882;20.650;2022-11-18T11:50:57;14.18;;;11.35;;
59978;SDS011;45839;44.882;20.650;2022-11-18T12:01:21;21.27;;;17.63;;
59978;SDS011;45839;44.882;20.650;2022-11-18T12:03:52;14.02;;;11.23;;
59978;SDS011;45839;44.882;20.650;2022-11-18T12:06:21;14.32;;;10.98;;
59978;SDS011;45839;44.882;20.650;2022-11-18T12:09:11;17.08;;;12.00;;
59978;SDS011;45839;44.882;20.650;2022-11-18T12:11:40;14.82;;;11.80;;
59978;SDS011;45839;44.882;20.650;2022-11-18T12:19:19;15.05;;;11.80;;
59978;SDS011;45839;44.882;20.650;2022-11-18T12:26:55;16.45;;;12.38;;
59978;SDS011;45839;44.882;20.650;2022-11-18T12:29:22;14.35;;;10.73;;
59978;SDS011;45839;44.882;20.650;2022-11-18T12:34:37;14.23;;;11.85;;
59978;SDS011;45839;44.882;20.650;2022-11-18T12:39:47;14.15;;;10.48;;
59978;SDS011;45839;44.882;20.650;2022-11-18T12:48:01;13.85;;;9.95;;
59978;SDS011;45839;44.882;20.650;2022-11-18T12:51:01;14.40;;;10.57;;
59978;SDS011;45839;44.882;20.650;2022-11-18T12:55:52;16.80;;;10.38;;
59978;SDS011;45839;44.882;20.650;2022-11-18T12:58:21;14.38;;;11.65;;
59978;SDS011;45839;44.882;20.650;2022-11-18T13:00:48;15.35;;;11.43;;
59978;SDS011;45839;44.882;20.650;2022-11-18T13:03:21;13.63;;;11.40;;
59978;SDS011;45839;44.882;20.650;2022-11-18T13:05:48;14.93;;;11.18;;
59978;SDS011;45839;44.882;20.650;2022-11-18T13:08:14;17.05;;;12.15;;
59978;SDS011;45839;44.882;20.650;2022-11-18T13:13:18;17.92;;;15.02;;
59978;SDS011;45839;44.882;20.650;2022-11-18T13:15:46;16.52;;;12.77;;
59978;SDS011;45839;44.882;20.650;2022-11-18T13:18:30;15.50;;;12.20;;
59978;SDS011;45839;44.882;20.650;2022-11-18T13:20:58;13.93;;;11.82;;
59978;SDS011;45839;44.882;20.650;2022-11-18T13:23:44;16.42;;;12.13;;
59978;SDS011;45839;44.882;20.650;2022-11-18T13:33:40;14.07;;;11.10;;
59978;SDS011;45839;44.882;20.650;2022-11-18T13:36:14;13.25;;;10.98;;
59978;SDS011;45839;44.882;20.650;2022-11-18T13:38:41;14.38;;;10.52;;
59978;SDS011;45839;44.882;20.650;2022-11-18T13:41:19;13.65;;;10.15;;
59978;SDS011;45839;44.882;20.650;2022-11-18T13:43:48;12.05;;;9.43;;
59978;SDS011;45839;44.882;20.650;2022-11-18T13:46:16;12.32;;;9.38;;
59978;SDS011;45839;44.882;20.650;2022-11-18T13:48:51;12.10;;;9.27;;
59978;SDS011;45839;44.882;20.650;2022-11-18T13:51:19;13.65;;;9.00;;
59978;SDS011;45839;44.882;20.650;2022-11-18T13:53:46;11.32;;;8.40;;
59978;SDS011;45839;44.882;20.650;2022-11-18T13:56:22;10.38;;;7.88;;
59978;SDS011;45839;44.882;20.650;2022-11-18T14:01:24;10.85;;;7.82;;
59978;SDS011;45839;44.882;20.650;2022-11-18T14:06:31;10.73;;;8.43;;
59978;SDS011;45839;44.882;20.650;2022-11-18T14:09:04;12.25;;;8.73;;
59978;SDS011;45839;44.882;20.650;2022-11-18T14:11:37;10.85;;;8.13;;
59978;SDS011;45839;44.882;20.650;2022-11-18T14:14:04;13.77;;;8.57;;
59978;SDS011;45839;44.882;20.650;2022-11-18T14:16:32;10.88;;;8.02;;
59978;SDS011;45839;44.882;20.650;2022-11-18T14:18:58;12.38;;;8.68;;
59978;SDS011;45839;44.882;20.650;2022-11-18T14:21:31;11.63;;;8.30;;
59978;SDS011;45839;44.882;20.650;2022-11-18T14:23:58;10.93;;;8.05;;
59978;SDS011;45839;44.882;20.650;2022-11-18T14:26:34;12.65;;;9.02;;
59978;SDS011;45839;44.882;20.650;2022-11-18T14:29:02;12.30;;;8.93;;
59978;SDS011;45839;44.882;20.650;2022-11-18T14:31:39;13.52;;;10.30;;
59978;SDS011;45839;44.882;20.650;2022-11-18T14:34:14;12.93;;;9.68;;
59978;SDS011;45839;44.882;20.650;2022-11-18T14:36:46;14.13;;;11.18;;
59978;SDS011;45839;44.882;20.650;2022-11-18T14:41:45;14.32;;;11.18;;
59978;SDS011;45839;44.882;20.650;2022-11-18T14:44:11;15.18;;;10.38;;
59978;SDS011;45839;44.882;20.650;2022-11-18T14:46:38;14.02;;;10.82;;
59978;SDS011;45839;44.882;20.650;2022-11-18T14:49:04;14.82;;;10.70;;
59978;SDS011;45839;44.882;20.650;2022-11-18T14:51:31;13.98;;;10.80;;
59978;SDS011;45839;44.882;20.650;2022-11-18T14:53:57;15.15;;;11.10;;
59978;SDS011;45839;44.882;20.650;2022-11-18T14:56:25;12.27;;;10.30;;
59978;SDS011;45839;44.882;20.650;2022-11-18T14:58:52;12.48;;;10.55;;
59978;SDS011;45839;44.882;20.650;2022-11-18T15:01:18;18.50;;;14.63;;
59978;SDS011;45839;44.882;20.650;2022-11-18T15:03:44;36.10;;;28.95;;
59978;SDS011;45839;44.882;20.650;2022-11-18T15:06:14;80.28;;;67.38;;
59978;SDS011;45839;44.882;20.650;2022-11-18T15:08:41;27.60;;;22.83;;
59978;SDS011;45839;44.882;20.650;2022-11-18T15:11:08;14.98;;;12.20;;
59978;SDS011;45839;44.882;20.650;2022-11-18T15:13:34;13.48;;;9.70;;
59978;SDS011;45839;44.882;20.650;2022-11-18T15:18:56;38.97;;;31.48;;
59978;SDS011;45839;44.882;20.650;2022-11-18T15:21:23;11.40;;;8.90;;
59978;SDS011;45839;44.882;20.650;2022-11-18T15:23:49;9.95;;;7.03;;
59978;SDS011;45839;44.882;20.650;2022-11-18T15:28:48;10.85;;;8.20;;
59978;SDS011;45839;44.882;20.650;2022-11-18T15:31:14;11.82;;;7.55;;
59978;SDS011;45839;44.882;20.650;2022-11-18T15:33:41;9.93;;;7.60;;
59978;SDS011;45839;44.882;20.650;2022-11-18T15:36:25;10.30;;;7.13;;
59978;SDS011;45839;44.882;20.650;2022-11-18T15:38:52;11.43;;;7.63;;
59978;SDS011;45839;44.882;20.650;2022-11-18T15:41:19;11.40;;;7.70;;
59978;SDS011;45839;44.882;20.650;2022-11-18T15:43:46;9.73;;;6.90;;
59978;SDS011;45839;44.882;20.650;2022-11-18T15:46:12;9.20;;;6.47;;
59978;SDS011;45839;44.882;20.650;2022-11-18T15:48:38;8.27;;;5.50;;
59978;SDS011;45839;44.882;20.650;2022-11-18T15:51:04;8.43;;;5.35;;
59978;SDS011;45839;44.882;20.650;2022-11-18T15:53:30;7.53;;;5.32;;
59978;SDS011;45839;44.882;20.650;2022-11-18T15:58:59;9.70;;;5.75;;
59978;SDS011;45839;44.882;20.650;2022-11-18T16:01:27;7.07;;;4.72;;
59978;SDS011;45839;44.882;20.650;2022-11-18T16:03:53;11.48;;;7.00;;
59978;SDS011;45839;44.882;20.650;2022-11-18T16:06:19;9.18;;;5.70;;
59978;SDS011;45839;44.882;20.650;2022-11-18T16:08:46;9.27;;;4.82;;
59978;SDS011;45839;44.882;20.650;2022-11-18T16:11:13;7.93;;;4.90;;
59978;SDS011;45839;44.882;20.650;2022-11-18T16:13:59;7.50;;;4.70;;
59978;SDS011;45839;44.882;20.650;2022-11-18T16:16:25;7.88;;;4.93;;
59978;SDS011;45839;44.882;20.650;2022-11-18T16:18:58;6.63;;;4.22;;
59978;SDS011;45839;44.882;20.650;2022-11-18T16:23:57;9.45;;;5.18;;
59978;SDS011;45839;44.882;20.650;2022-11-18T16:26:24;8.93;;;5.07;;
59978;SDS011;45839;44.882;20.650;2022-11-18T16:28:50;8.70;;;5.13;;
59978;SDS011;45839;44.882;20.650;2022-11-18T16:31:16;9.48;;;5.28;;